Date,TemperatureHighF,TemperatureAvgF,TemperatureLowF,DewpointHighF,DewpointAvgF,DewpointLowF,HumidityHigh,HumidityAvg,HumidityLow,PressureMaxIn,PressureMinIn,WindSpeedMaxMPH,WindSpeedAvgMPH,GustSpeedMaxMPH,PrecipitationSumIn
2013-1-5,45,40,37,35,32,26,91,74,47,30.34,30.25,0,0,0,0.08
2013-1-6,43,39,36,38,34,31,92,84,75,30.26,30.13,8,1,0,0.01
2013-1-7,55,41,30,32,28,22,86,63,38,30.36,30.22,6,1,0,0.00
2013-1-8,53,46,39,45,37,29,87,72,63,30.36,30.27,6,0,0,0.00
2013-1-9,62,57,48,54,51,45,90,81,72,30.39,30.30,5,0,0,0.00
2013-1-10,62,59,57,55,53,50,91,79,73,30.35,30.16,6,0,0,0.02
2013-1-11,64,61,57,62,59,55,95,93,91,30.16,30.05,11,1,0,0.33
2013-1-12,68,64,61,62,60,57,95,86,75,30.10,29.98,6,1,0,0.01
2013-1-13,66,64,61,60,59,57,92,84,76,30.04,29.94,10,2,0,0.48
2013-1-14,62,55,48,60,54,46,96,95,92,30.08,29.95,4,0,0,1.20
2013-1-15,61,56,49,60,55,48,96,96,94,30.05,29.90,5,0,0,1.51
2013-1-16,62,56,50,61,54,49,96,95,95,29.94,29.85,4,0,0,0.86
2013-1-17,56,46,33,55,44,31,96,93,84,30.20,29.61,11,1,0,1.14
2013-1-18,51,38,28,36,30,26,92,78,42,30.48,30.21,4,0,0,0.01
2013-1-19,52,41,32,31,29,25,85,63,41,30.43,30.21,4,0,0,0.00
2013-1-20,58,46,37,39,34,30,80,63,45,30.20,30.08,8,1,0,0.00
2013-1-21,51,43,34,34,26,16,82,53,42,30.13,30.03,15,1,0,0.00
2013-1-22,40,31,25,16,12,9,56,46,37,30.30,30.10,13,1,0,0.00
2013-1-23,46,37,28,36,22,11,69,55,44,30.36,30.17,9,1,0,0.00
2013-1-24,46,42,30,40,26,12,80,55,27,30.31,30.10,11,2,0,0.00
2013-1-25,41,34,29,40,24,8,94,72,41,30.32,30.14,10,1,0,0.15
2013-1-26,50,39,33,39,34,24,94,82,58,30.25,30.12,4,0,0,0.00
2013-1-27,48,42,34,35,31,23,77,66,56,30.42,30.25,7,1,0,0.00
2013-1-28,51,47,41,48,42,31,94,82,63,30.38,30.24,4,0,0,0.00
2013-1-29,68,59,47,60,55,45,95,87,71,30.25,29.91,16,2,0,0.00
2013-1-30,65,56,39,62,54,34,95,90,80,29.89,29.48,11,3,0,3.42
2013-1-31,43,36,31,33,25,23,81,65,46,30.12,29.70,15,2,0,0.00
2013-2-1,39,32,26,30,16,8,75,52,34,30.35,30.07,14,2,0,0.00
2013-2-2,41,31,24,35,21,3,93,69,23,30.33,30.12,3,0,0,0.16
2013-2-3,48,38,32,36,31,27,94,77,46,30.12,29.98,15,2,0,0.22
2013-2-4,48,38,28,34,27,22,81,65,44,30.11,29.99,4,0,0,0.00
2013-2-5,55,46,38,47,39,30,89,77,65,30.01,29.94,4,0,0,0.00
2013-2-6,63,50,38,41,35,29,91,59,34,30.13,30.01,8,1,0,0.00
2013-2-7,52,48,46,44,38,30,89,70,43,30.10,29.87,10,1,0,0.12
2013-2-8,52,45,34,46,40,30,94,84,59,30.13,29.86,12,0,0,0.08
2013-2-9,62,45,28,32,27,24,89,55,26,30.27,30.08,6,0,0,0.00
2013-2-10,54,48,44,48,36,27,92,65,43,30.25,30.03,10,2,0,0.79
2013-2-11,54,51,45,52,48,41,95,91,83,30.09,29.99,13,1,0,0.30
2013-2-12,54,45,40,44,37,32,88,75,47,30.06,30.00,2,0,0,0.02
2013-3-10,74,74,74,55,54,54,52,52,51,30.11,30.11,7,4,0,0.00